Airport Name : Aldergrove

Other Name : Aldergrove

ICAO : EGAA

IATA : BFS

FAA :

Latitude : 54.6575

Longitude : -6.215833

Country : United Kingdom

Local Date and Time : 25 Jun 2024 06:01

 

TAF (Terminal Aerodrome Forecast)

TAF AMD EGAA 250440Z 2504/2524 26006KT 9999 SCT035 TEMPO 2504/2512 BKN012 PROB30 TEMPO 2504/2508 BKN004 TEMPO 2523/2524 5000 BR

 

METAR (METeorological Aerodrome Report)

EGAA 250450Z 01008KT 9999 BKN004 14/13 Q1017

EGAA 250420Z AUTO 05004KT 350V080 9999 SCT005 SCT022 BKN042 14/14 Q1017

EGAA 250350Z AUTO 09003KT 9999 FEW011 BKN027 15/14 Q1017

EGAA 250320Z AUTO 06004KT 9999 FEW011 SCT021 15/14 Q1017

EGAA 250250Z AUTO 36005KT 9999 BKN024 OVC037 16/14 Q1017

EGAA 250220Z AUTO 36005KT 9999 BKN037 16/14 Q1016

EGAA 250150Z AUTO 01005KT 9999 BKN036 BKN042 16/15 Q1016

EGAA 250120Z AUTO 35007KT 320V020 9999 BKN036 BKN045 17/15 Q1016 REUP